Time;durP1;ratioP1;P1;durP2;ratioP2;P2;SDS_P1;SDS_P2;PMS_P1;PMS_P2;Temp;Humidity;BMP_temperature;BMP_pressure;BME280_temperature;BME280_humidity;BME280_pressure;Samples;Min_cycle;Max_cycle;Signal;HPM_P1;HPM_P2
2023/07/23 00:02:13;;;;;;;6.65;2.35;;;;;;;-144.51;100.00;69251.94;4794805;29;20043;-86
2023/07/23 00:05:08;;;;;;;4.38;2.70;;;;;;;-144.51;100.00;69251.94;4781931;29;20043;-87
2023/07/23 00:08:04;;;;;;;7.18;2.67;;;;;;;-144.51;100.00;69251.94;4796373;29;20047;-86
2023/07/23 00:11:00;;;;;;;3.15;2.25;;;;;;;-144.51;100.00;69251.94;4781420;30;20051;-86
2023/07/23 00:13:52;;;;;;;4.95;2.28;;;;;;;-144.51;100.00;69251.94;4785989;29;20055;-88
2023/07/23 00:16:46;;;;;;;5.63;2.60;;;;;;;-144.51;100.00;69251.94;4784331;30;20047;-88
2023/07/23 00:19:38;;;;;;;3.40;2.22;;;;;;;-144.51;100.00;69251.94;4781755;29;20047;-88
2023/07/23 00:22:33;;;;;;;3.78;2.28;;;;;;;-144.51;100.00;69251.94;4797852;29;20047;-88
2023/07/23 00:25:28;;;;;;;3.05;2.38;;;;;;;-144.51;100.00;69251.94;4782692;30;20047;-87
2023/07/23 00:28:22;;;;;;;5.28;2.88;;;;;;;-144.51;100.00;69251.94;4778754;30;20043;-87
2023/07/23 00:31:17;;;;;;;5.05;2.05;;;;;;;-144.51;100.00;69251.94;4798439;29;20044;-87
2023/07/23 00:34:13;;;;;;;2.22;1.80;;;;;;;-144.51;100.00;69251.94;4798584;29;20047;-87
2023/07/23 00:37:02;;;;;;;3.45;2.63;;;;;;;-144.51;100.00;69251.94;4786064;29;20445;-86
2023/07/23 00:39:57;;;;;;;4.10;1.70;;;;;;;-144.51;100.00;69251.94;4792306;30;20047;-87
2023/07/23 00:42:49;;;;;;;3.50;1.88;;;;;;;-144.51;100.00;69251.94;4786455;29;20047;-87
2023/07/23 00:45:44;;;;;;;3.55;2.20;;;;;;;-144.51;100.00;69251.94;4786628;29;20043;-87
2023/07/23 00:48:33;;;;;;;;;;;;;;;-144.51;100.00;69251.94;4782778;30;20048;-88
2023/07/23 00:51:30;;;;;;;5.75;2.28;;;;;;;-144.51;100.00;69251.94;4793353;30;19936;-88
2023/07/23 00:54:25;;;;;;;3.45;2.08;;;;;;;-144.51;100.00;69251.94;4793484;30;20043;-88
2023/07/23 00:57:20;;;;;;;5.40;1.98;;;;;;;-144.51;100.00;69251.94;4793154;30;20529;-89
2023/07/23 01:00:14;;;;;;;3.17;2.13;;;;;;;-144.51;100.00;69251.94;4788013;29;20047;-86
2023/07/23 01:03:06;;;;;;;4.43;2.55;;;;;;;-144.51;100.00;69251.94;4794484;30;20051;-85
2023/07/23 01:06:02;;;;;;;5.35;1.90;;;;;;;-144.51;100.00;69251.94;4786972;29;20039;-87
2023/07/23 01:08:55;;;;;;;4.13;2.58;;;;;;;-144.51;100.00;69251.94;4796375;29;20138;-86
2023/07/23 01:11:49;;;;;;;5.28;2.80;;;;;;;-144.51;100.00;69251.94;4800045;29;20047;-86
2023/07/23 01:14:42;;;;;;;6.85;3.72;;;;;;;-144.51;100.00;69251.94;4787620;29;20043;-87
2023/07/23 01:17:34;;;;;;;;;;;;;;;-144.51;100.00;69251.94;4796513;29;20047;-86
2023/07/23 01:20:29;;;;;;;4.22;2.47;;;;;;;-144.51;100.00;69251.94;4794044;29;19917;-86
2023/07/23 01:23:23;;;;;;;9.63;3.40;;;;;;;-144.51;100.00;69251.94;4786758;29;20043;-86
2023/07/23 01:26:18;;;;;;;4.15;2.58;;;;;;;-144.51;100.00;69251.94;4786523;29;20486;-86
2023/07/23 01:29:10;;;;;;;;;;;;;;;-144.51;100.00;69251.94;4782092;30;20055;-86
2023/07/23 01:32:02;;;;;;;3.45;2.55;;;;;;;-144.51;100.00;69251.94;4785840;29;19917;-86
2023/07/23 01:34:55;;;;;;;3.10;2.50;;;;;;;-144.51;100.00;69251.94;4794006;30;20043;-86
2023/07/23 01:37:53;;;;;;;5.25;3.13;;;;;;;-144.51;100.00;69251.94;4796802;29;20047;-86
2023/07/23 01:40:43;;;;;;;;;;;;;;;-144.51;100.00;69251.94;4787107;30;20047;-86
2023/07/23 01:43:38;;;;;;;3.17;1.95;;;;;;;-144.51;100.00;69251.94;4784557;30;19917;-86
2023/07/23 01:46:30;;;;;;;5.03;2.90;;;;;;;-144.51;100.00;69251.94;4785247;30;20047;-85
2023/07/23 01:49:25;;;;;;;4.35;2.92;;;;;;;-144.51;100.00;69251.94;4780541;30;20051;-85
2023/07/23 01:52:17;;;;;;;5.68;2.97;;;;;;;-144.51;100.00;69251.94;4783874;30;20044;-84
2023/07/23 01:55:12;;;;;;;6.25;3.20;;;;;;;-144.51;100.00;69251.94;4789298;30;20051;-83
2023/07/23 01:58:07;;;;;;;6.68;3.22;;;;;;;-144.51;100.00;69251.94;4780996;30;20051;-83
2023/07/23 02:01:05;;;;;;;3.60;2.80;;;;;;;-144.51;100.00;69251.94;4792364;30;20606;-83
2023/07/23 02:03:59;;;;;;;6.07;3.42;;;;;;;-144.51;100.00;69251.94;4828161;24;20055;-78
2023/07/23 02:06:54;;;;;;;4.72;2.90;;;;;;;-144.51;100.00;69251.94;4785644;30;20413;-79
2023/07/23 02:09:50;;;;;;;7.35;2.92;;;;;;;-144.51;100.00;69251.94;4786716;29;20055;-77
2023/07/23 02:12:44;;;;;;;4.38;2.63;;;;;;;-144.51;100.00;69251.94;4786830;29;20048;-77
2023/07/23 02:15:37;;;;;;;;;;;;;;;-144.51;100.00;69251.94;4786299;29;20047;-77
2023/07/23 02:18:31;;;;;;;7.85;3.42;;;;;;;-144.51;100.00;69251.94;4788309;30;19980;-75
2023/07/23 02:21:26;;;;;;;7.10;3.53;;;;;;;-144.51;100.00;69251.94;4775047;30;20047;-78
2023/07/23 02:24:20;;;;;;;5.80;3.33;;;;;;;-144.51;100.00;69251.94;4790307;29;20051;-76
2023/07/23 02:27:12;;;;;;;7.78;3.65;;;;;;;-144.51;100.00;69251.94;4797343;29;20038;-79
2023/07/23 02:30:06;;;;;;;6.68;3.90;;;;;;;-144.51;100.00;69251.94;4796945;29;20051;-77
2023/07/23 02:32:59;;;;;;;;;;;;;;;-144.51;100.00;69251.94;4807790;29;20043;-76
2023/07/23 02:35:53;;;;;;;6.28;3.65;;;;;;;-144.51;100.00;69251.94;4809640;29;19921;-79
2023/07/23 02:38:48;;;;;;;8.90;4.15;;;;;;;-144.51;100.00;69251.94;4795242;29;20046;-78
2023/07/23 02:41:42;;;;;;;6.97;4.03;;;;;;;-144.51;100.00;69251.94;4807167;29;20047;-77
2023/07/23 02:45:35;;;;;;;7.75;4.13;;;;;;;-144.51;100.00;69251.94;4808502;29;20043;-80
2023/07/23 02:49:28;;;;;;;7.57;4.00;;;;;;;-144.51;100.00;69251.94;4808371;29;20043;-80
2023/07/23 02:53:21;;;;;;;7.80;4.35;;;;;;;-144.51;100.00;69251.94;4806940;29;20042;-80
2023/07/23 02:57:14;;;;;;;8.63;3.80;;;;;;;-144.51;100.00;69251.94;4791431;29;20055;-80
2023/07/23 03:01:07;;;;;;;7.63;4.10;;;;;;;-144.51;100.00;69251.94;4796550;29;20047;-79
2023/07/23 03:05:00;;;;;;;6.63;3.25;;;;;;;-144.51;100.00;69251.94;4799786;29;20429;-79
2023/07/23 03:08:54;;;;;;;9.57;3.22;;;;;;;-144.51;100.00;69251.94;4807514;29;20043;-80
2023/07/23 03:12:47;;;;;;;5.20;3.70;;;;;;;-144.51;100.00;69251.94;4807369;29;20051;-78
2023/07/23 03:16:40;;;;;;;6.63;3.78;;;;;;;-144.51;100.00;69251.94;4807330;29;20046;-77
2023/07/23 03:20:33;;;;;;;6.18;3.15;;;;;;;-144.51;100.00;69251.94;4809100;29;20042;-79
2023/07/23 03:24:26;;;;;;;7.78;3.88;;;;;;;-144.51;100.00;69251.94;4809530;29;20043;-79
2023/07/23 03:28:20;;;;;;;5.15;3.03;;;;;;;-144.51;100.00;69251.94;4798253;29;20046;-79
2023/07/23 03:32:13;;;;;;;5.88;2.80;;;;;;;-144.51;100.00;69251.94;4806082;29;20047;-79
2023/07/23 03:36:06;;;;;;;4.85;3.35;;;;;;;-144.51;100.00;69251.94;4805363;29;20361;-80
2023/07/23 03:39:59;;;;;;;5.25;2.90;;;;;;;-144.51;100.00;69251.94;4793485;29;20043;-78
2023/07/23 03:43:52;;;;;;;5.57;3.08;;;;;;;-144.51;100.00;69251.94;4806830;29;20050;-78
2023/07/23 03:47:48;;;;;;;8.43;3.03;;;;;;;-144.51;100.00;69251.94;4807550;29;20039;-80
2023/07/23 03:51:41;;;;;;;7.07;3.37;;;;;;;-144.51;100.00;69251.94;4806353;29;20054;-81
2023/07/23 03:55:34;;;;;;;6.60;3.60;;;;;;;-144.51;100.00;69251.94;4805330;29;20280;-78
2023/07/23 03:59:28;;;;;;;8.15;2.58;;;;;;;-144.51;100.00;69251.94;4811418;29;20051;-80
2023/07/23 04:03:21;;;;;;;3.70;3.13;;;;;;;-144.51;100.00;69251.94;4805683;29;20050;-80
2023/07/23 04:07:14;;;;;;;4.82;3.13;;;;;;;-144.51;100.00;69251.94;4798256;29;20046;-79
2023/07/23 04:11:07;;;;;;;10.48;3.13;;;;;;;-144.51;100.00;69251.94;4805040;29;20582;-79
2023/07/23 04:15:00;;;;;;;6.97;2.60;;;;;;;-144.51;100.00;69251.94;4806553;29;20051;-79
2023/07/23 04:18:53;;;;;;;5.57;3.90;;;;;;;-144.51;100.00;69251.94;4807357;29;20046;-78
2023/07/23 04:22:46;;;;;;;12.25;4.40;;;;;;;-144.51;100.00;69251.94;4797425;29;20039;-81
2023/07/23 04:26:39;;;;;;;8.82;4.00;;;;;;;-144.51;100.00;69251.94;4797780;29;20417;-80
2023/07/23 04:30:32;;;;;;;10.40;4.55;;;;;;;-144.51;100.00;69251.94;4797187;29;20051;-81
2023/07/23 04:34:25;;;;;;;9.35;4.10;;;;;;;-144.51;100.00;69251.94;4804810;29;20042;-79
2023/07/23 04:38:18;;;;;;;7.55;4.07;;;;;;;-144.51;100.00;69251.94;4804601;29;20050;-79
2023/07/23 04:42:11;;;;;;;7.88;4.03;;;;;;;-144.51;100.00;69251.94;4806105;29;20052;-79
2023/07/23 04:46:04;;;;;;;9.25;3.35;;;;;;;-144.51;100.00;69251.94;4793681;29;20047;-79
2023/07/23 04:49:57;;;;;;;6.55;3.67;;;;;;;-144.51;100.00;69251.94;4794390;29;20043;-80
2023/07/23 04:53:50;;;;;;;6.38;4.18;;;;;;;-144.51;100.00;69251.94;4792244;29;20047;-78
2023/07/23 04:57:43;;;;;;;9.02;4.22;;;;;;;-144.51;100.00;69251.94;4791783;29;20422;-78
2023/07/23 05:01:36;;;;;;;7.00;3.72;;;;;;;-144.51;100.00;69251.94;4793598;29;20047;-79
2023/07/23 05:05:29;;;;;;;10.55;4.60;;;;;;;-144.51;100.00;69251.94;4786793;29;20146;-76
2023/07/23 05:09:19;;;;;;;6.95;4.47;;;;;;;-144.51;100.00;69251.94;4785834;30;20106;-79
2023/07/23 05:13:12;;;;;;;9.00;4.38;;;;;;;-144.51;100.00;69251.94;4771766;29;20043;-77
2023/07/23 05:17:03;;;;;;;7.20;4.53;;;;;;;-144.51;100.00;69251.94;4791171;29;20051;-79
2023/07/23 05:20:00;;;;;;;10.70;5.22;;;;;;;-144.51;100.00;69251.94;4793841;29;20043;-80
2023/07/23 05:22:55;;;;;;;6.28;4.78;;;;;;;-144.51;100.00;69251.94;4800867;29;20050;-80
2023/07/23 05:26:12;;;;;;;12.60;5.88;;;;;;;-144.51;100.00;69251.94;4796359;29;20043;-80
2023/07/23 05:29:28;;;;;;;8.35;5.55;;;;;;;-144.51;100.00;69251.94;4803818;29;20528;-81
2023/07/23 05:32:44;;;;;;;13.88;5.22;;;;;;;-144.51;100.00;69251.94;4804920;29;20051;-80
2023/07/23 05:36:00;;;;;;;7.55;5.53;;;;;;;-144.51;100.00;69251.94;4804205;29;20046;-80
2023/07/23 05:39:16;;;;;;;8.93;5.53;;;;;;;-144.51;100.00;69251.94;4804691;29;20050;-80
2023/07/23 05:42:29;;;;;;;5.47;4.05;;;;;;;-144.51;100.00;69251.94;4794429;29;20055;-81
2023/07/23 05:45:35;;;;;;;7.53;4.97;;;;;;;-144.51;100.00;69251.94;4797039;29;20047;-80
2023/07/23 05:48:28;;;;;;;8.80;4.97;;;;;;;-144.51;100.00;69251.94;4804745;29;20051;-80
2023/07/23 05:51:24;;;;;;;8.25;4.88;;;;;;;-144.51;100.00;69251.94;4803792;29;20043;-80
2023/07/23 05:54:19;;;;;;;5.80;3.33;;;;;;;-144.51;100.00;69251.94;4792844;29;20059;-80
2023/07/23 05:57:12;;;;;;;7.18;3.42;;;;;;;-144.51;100.00;69251.94;4809647;29;20050;-82
2023/07/23 06:00:09;;;;;;;5.78;3.72;;;;;;;-144.51;100.00;69251.94;4811850;29;20055;-83
2023/07/23 06:03:04;;;;;;;7.80;4.18;;;;;;;-144.51;100.00;69251.94;4810143;29;20433;-82
2023/07/23 06:05:54;;;;;;;8.52;4.18;;;;;;;-144.51;100.00;69251.94;4812070;29;20047;-80
2023/07/23 06:08:48;;;;;;;6.40;3.35;;;;;;;-144.51;100.00;69251.94;4813584;29;20043;-83
2023/07/23 06:11:43;;;;;;;6.32;4.32;;;;;;;-144.51;100.00;69251.94;4809754;29;20042;-81
2023/07/23 06:14:38;;;;;;;5.00;3.85;;;;;;;-144.51;100.00;69251.94;4809013;29;20054;-82
2023/07/23 06:17:34;;;;;;;6.22;3.40;;;;;;;-144.51;100.00;69251.94;4811214;29;20509;-81
2023/07/23 06:20:26;;;;;;;6.88;3.40;;;;;;;-144.51;100.00;69251.94;4809292;29;20505;-80
2023/07/23 06:23:18;;;;;;;7.72;4.40;;;;;;;-144.51;100.00;69251.94;4811853;29;20043;-82
2023/07/23 06:26:13;;;;;;;6.82;3.40;;;;;;;-144.51;100.00;69251.94;4808868;29;20047;-81
2023/07/23 06:29:08;;;;;;;5.70;3.22;;;;;;;-144.51;100.00;69251.94;4800347;29;20493;-79
2023/07/23 06:32:03;;;;;;;6.00;3.08;;;;;;;-144.51;100.00;69251.94;4807409;29;20042;-79
2023/07/23 06:34:56;;;;;;;;;;;;;;;-144.51;100.00;69251.94;4808150;29;20497;-78
2023/07/23 06:37:45;;;;;;;6.63;3.15;;;;;;;-144.51;100.00;69251.94;4808334;29;19921;-80
2023/07/23 06:40:43;;;;;;;4.93;3.05;;;;;;;-144.51;100.00;69251.94;4811118;29;20046;-82
2023/07/23 06:43:38;;;;;;;6.38;3.40;;;;;;;-144.51;100.00;69251.94;4820379;29;20043;-80
2023/07/23 06:46:30;;;;;;;6.78;3.83;;;;;;;-144.51;100.00;69251.94;4807342;29;20047;-80
2023/07/23 06:49:24;;;;;;;9.45;3.72;;;;;;;-144.51;100.00;69251.94;4795119;29;20054;-80
2023/07/23 06:52:19;;;;;;;5.25;3.78;;;;;;;-144.51;100.00;69251.94;4798967;29;20047;-80
2023/07/23 06:55:11;;;;;;;;;;;;;;;-144.51;100.00;69251.94;4812939;29;20043;-79
2023/07/23 06:58:06;;;;;;;5.68;3.35;;;;;;;-144.51;100.00;69251.94;4807650;29;19922;-82
2023/07/23 07:01:00;;;;;;;8.48;2.90;;;;;;;-144.51;100.00;69251.94;4794480;29;20050;-80
2023/07/23 07:03:55;;;;;;;7.90;3.05;;;;;;;-144.51;100.00;69251.94;4796387;29;20051;-83
2023/07/23 07:06:47;;;;;;;5.70;3.33;;;;;;;-144.51;100.00;69251.94;4807127;29;20035;-78
2023/07/23 07:09:41;;;;;;;6.20;3.10;;;;;;;-144.51;100.00;69251.94;4811133;29;20046;-78
2023/07/23 07:12:36;;;;;;;3.17;2.25;;;;;;;-144.51;100.00;69251.94;4810113;29;20047;-81
2023/07/23 07:15:25;;;;;;;;;;;;;;;-144.51;100.00;69251.94;4783002;29;20048;-78
2023/07/23 07:18:17;;;;;;;9.45;3.72;;;;;;;-144.51;100.00;69251.94;4782593;30;19922;-79
2023/07/23 07:21:12;;;;;;;10.85;3.25;;;;;;;-144.51;100.00;69251.94;4770058;30;20052;-81
2023/07/23 07:24:06;;;;;;;7.55;3.58;;;;;;;-144.51;100.00;69251.94;4771778;30;20043;-81
2023/07/23 07:26:58;;;;;;;;;;;;;;;-144.51;100.00;69251.94;4785570;29;20506;-79
2023/07/23 07:29:53;;;;;;;5.15;2.88;;;;;;;-144.51;100.00;69251.94;4770827;30;19918;-77
2023/07/23 07:32:48;;;;;;;6.65;2.85;;;;;;;-144.51;100.00;69251.94;4786795;29;20506;-81
2023/07/23 07:35:40;;;;;;;6.13;3.28;;;;;;;-144.51;100.00;69251.94;4788654;29;20438;-81
2023/07/23 07:38:32;;;;;;;11.55;3.92;;;;;;;-144.51;100.00;69251.94;4781900;30;20410;-80
2023/07/23 07:41:26;;;;;;;5.22;3.03;;;;;;;-144.51;100.00;69251.94;4788076;29;20043;-78
2023/07/23 07:44:21;;;;;;;6.55;2.92;;;;;;;-144.51;100.00;69251.94;4794200;29;20047;-79
2023/07/23 07:47:15;;;;;;;8.75;3.58;;;;;;;-144.51;100.00;69251.94;4800082;29;20039;-81
2023/07/23 07:50:11;;;;;;;14.20;4.05;;;;;;;-144.51;100.00;69251.94;4800164;29;20042;-78
2023/07/23 07:53:05;;;;;;;14.25;3.67;;;;;;;-144.51;100.00;69251.94;4787097;29;20047;-77
2023/07/23 07:56:00;;;;;;;14.32;4.10;;;;;;;-144.51;100.00;69251.94;4787232;30;20047;-78
2023/07/23 07:58:54;;;;;;;10.18;2.80;;;;;;;-144.51;100.00;69251.94;4786768;30;20051;-78
2023/07/23 08:01:46;;;;;;;;;;;;;;;-144.51;100.00;69251.94;4788657;29;20044;-76
2023/07/23 08:04:41;;;;;;;5.53;2.83;;;;;;;-144.51;100.00;69251.94;4837652;24;19929;-80
2023/07/23 08:07:31;;;;;;;;;;;;;;;-144.51;100.00;69251.94;4788039;29;20047;-80
2023/07/23 08:10:25;;;;;;;4.45;2.60;;;;;;;-144.51;100.00;69251.94;4797141;29;19917;-80
2023/07/23 08:13:17;;;;;;;;;;;;;;;-144.51;100.00;69251.94;4787732;29;20051;-80
2023/07/23 08:16:12;;;;;;;5.70;2.88;;;;;;;-144.51;100.00;69251.94;4796412;29;19917;-80
2023/07/23 08:19:07;;;;;;;5.57;2.83;;;;;;;-144.51;100.00;69251.94;4784967;29;20088;-83
2023/07/23 08:22:00;;;;;;;5.57;3.05;;;;;;;-144.51;100.00;69251.94;4778436;30;20043;-80
2023/07/23 08:24:55;;;;;;;41.83;13.02;;;;;;;-144.51;100.00;69251.94;4773631;30;20510;-81
2023/07/23 08:27:47;;;;;;;;;;;;;;;-144.51;100.00;69251.94;4754535;30;20040;-81
2023/07/23 08:30:42;;;;;;;113.75;29.50;;;;;;;-144.51;100.00;69251.94;4771733;29;19917;-81
2023/07/23 08:33:34;;;;;;;;;;;;;;;-144.51;100.00;69251.94;4783609;29;20047;-79
2023/07/23 08:36:26;;;;;;;278.60;69.45;;;;;;;-144.51;100.00;69251.94;4787686;29;19917;-81
2023/07/23 08:39:22;;;;;;;349.55;86.82;;;;;;;-144.51;100.00;69251.94;4791933;29;20059;-81
2023/07/23 08:42:42;;;;;;;16.80;8.18;;;;;;;-144.51;100.00;69251.94;4788835;29;20494;-81
2023/07/23 08:45:38;;;;;;;74.03;22.77;;;;;;;-144.51;100.00;69251.94;4791642;29;20047;-81
2023/07/23 08:48:54;;;;;;;9.55;5.07;;;;;;;-144.51;100.00;69251.94;4789294;29;20039;-81
2023/07/23 08:51:51;;;;;;;22.67;5.68;;;;;;;-144.51;100.00;69251.94;4774907;29;20451;-80
2023/07/23 08:54:48;;;;;;;11.88;4.30;;;;;;;-144.51;100.00;69251.94;4778537;29;20039;-81
2023/07/23 08:57:44;;;;;;;37.38;14.32;;;;;;;-144.51;100.00;69251.94;4781765;29;20048;-81
2023/07/23 09:00:40;;;;;;;10.48;4.28;;;;;;;-144.51;100.00;69251.94;4782731;29;20043;-81
2023/07/23 09:03:36;;;;;;;4.10;2.35;;;;;;;-144.51;100.00;69251.94;4780863;29;20321;-81
2023/07/23 09:06:32;;;;;;;9.70;2.50;;;;;;;-144.51;100.00;69251.94;4790980;29;20059;-81
2023/07/23 09:09:24;;;;;;;17.38;5.55;;;;;;;-144.51;100.00;69251.94;4790834;30;20421;-81
2023/07/23 09:12:19;;;;;;;4.10;2.90;;;;;;;-144.51;100.00;69251.94;4804070;29;20047;-81
2023/07/23 09:15:14;;;;;;;5.65;2.40;;;;;;;-144.51;100.00;69251.94;4791714;29;20047;-80
2023/07/23 09:18:09;;;;;;;4.97;2.85;;;;;;;-144.51;100.00;69251.94;4792251;29;20047;-81
2023/07/23 09:21:03;;;;;;;7.25;3.70;;;;;;;-144.51;100.00;69251.94;4791849;29;20043;-80
2023/07/23 09:24:02;;;;;;;11.10;4.93;;;;;;;-144.51;100.00;69251.94;4792392;29;20055;-81
2023/07/23 09:26:56;;;;;;;6.53;2.95;;;;;;;-144.51;100.00;69251.94;4795872;29;20051;-81
2023/07/23 09:29:48;;;;;;;;;;;;;;;-144.51;100.00;69251.94;4794230;29;20513;-80
2023/07/23 09:32:43;;;;;;;8.32;3.25;;;;;;;-144.51;100.00;69251.94;4804191;29;19918;-81
2023/07/23 09:35:37;;;;;;;6.88;2.95;;;;;;;-144.51;100.00;69251.94;4794790;29;20047;-80
2023/07/23 09:38:32;;;;;;;7.10;2.95;;;;;;;-144.51;100.00;69251.94;4792002;30;20047;-81
2023/07/23 09:41:28;;;;;;;33.83;12.00;;;;;;;-144.51;100.00;69251.94;4790575;29;20110;-81
2023/07/23 09:44:26;;;;;;;8.75;3.15;;;;;;;-144.51;100.00;69251.94;4791642;29;20047;-81
2023/07/23 09:47:34;;;;;;;7.43;3.30;;;;;;;-144.51;100.00;69251.94;4777757;30;20509;-80
2023/07/23 09:50:39;;;;;;;5.43;2.17;;;;;;;-144.51;100.00;69251.94;4779482;30;20043;-81
2023/07/23 09:53:40;;;;;;;7.30;4.47;;;;;;;-144.51;100.00;69251.94;4790316;29;20118;-80
2023/07/23 09:57:34;;;;;;;7.38;3.00;;;;;;;-144.51;100.00;69251.94;4790534;29;20501;-81
2023/07/23 10:01:25;;;;;;;14.23;5.78;;;;;;;-144.51;100.00;69251.94;4806379;29;20434;-80
2023/07/23 10:05:18;;;;;;;5.57;2.75;;;;;;;-144.51;100.00;69251.94;4776146;29;20051;-81
2023/07/23 10:09:13;;;;;;;5.95;2.80;;;;;;;-144.51;100.00;69251.94;4789284;29;20422;-81
2023/07/23 10:13:06;;;;;;;44.88;15.00;;;;;;;-144.51;100.00;69251.94;4778051;30;20043;-81
2023/07/23 10:16:59;;;;;;;24.60;9.13;;;;;;;-144.51;100.00;69251.94;4760280;30;20538;-81
2023/07/23 10:20:53;;;;;;;10.70;4.47;;;;;;;-144.51;100.00;69251.94;4761316;30;20040;-80
2023/07/23 10:24:57;;;;;;;5.75;2.80;;;;;;;-144.51;100.00;69251.94;4783416;30;20056;-81
2023/07/23 10:28:58;;;;;;;8.38;4.57;;;;;;;-144.51;100.00;69251.94;4773484;30;20044;-81
2023/07/23 10:32:26;;;;;;;3.97;2.20;;;;;;;-144.51;100.00;69251.94;4761924;30;20426;-81
2023/07/23 10:36:02;;;;;;;5.95;3.00;;;;;;;-144.51;100.00;69251.94;4771480;30;20048;-81
2023/07/23 10:39:20;;;;;;;;;;;;;;;-144.51;100.00;69251.94;4784905;29;20048;-81
2023/07/23 10:42:33;;;;;;;6.68;2.92;;;;;;;-144.51;100.00;69251.94;4770543;30;19917;-80
2023/07/23 10:45:49;;;;;;;5.35;2.40;;;;;;;-144.51;100.00;69251.94;4762210;30;20043;-81
2023/07/23 10:49:05;;;;;;;4.82;2.88;;;;;;;-144.51;100.00;69251.94;4764370;30;20048;-80
2023/07/23 10:52:16;;;;;;;9.00;2.83;;;;;;;-144.51;100.00;69251.94;4773588;30;20414;-81
2023/07/23 10:55:12;;;;;;;10.73;3.10;;;;;;;-144.51;100.00;69251.94;4773423;30;20051;-81
2023/07/23 10:58:11;;;;;;;7.75;3.17;;;;;;;-144.51;100.00;69251.94;4773525;30;20048;-81
2023/07/23 11:01:07;;;;;;;6.88;2.78;;;;;;;-144.51;100.00;69251.94;4773768;30;20513;-81
2023/07/23 11:04:08;;;;;;;9.63;4.22;;;;;;;-144.51;100.00;69251.94;4774519;30;20052;-80
2023/07/23 11:07:04;;;;;;;20.15;7.13;;;;;;;-144.51;100.00;69251.94;4765018;30;20434;-81
2023/07/23 11:09:57;;;;;;;19.38;7.45;;;;;;;-144.51;100.00;69251.94;4762930;30;20502;-81
2023/07/23 11:12:53;;;;;;;6.95;3.25;;;;;;;-144.51;100.00;69251.94;4773234;30;20051;-81
2023/07/23 11:16:07;;;;;;;5.28;3.05;;;;;;;-144.51;100.00;69251.94;4776038;30;20056;-80
2023/07/23 11:19:24;;;;;;;5.82;2.90;;;;;;;-144.51;100.00;69251.94;4771567;30;20044;-81
2023/07/23 11:22:27;;;;;;;7.68;3.28;;;;;;;-144.51;100.00;69251.94;4775181;30;20052;-80
2023/07/23 11:25:23;;;;;;;15.85;3.50;;;;;;;-144.51;100.00;69251.94;4773951;30;20047;-81
2023/07/23 11:28:21;;;;;;;7.70;3.30;;;;;;;-144.51;100.00;69251.94;4775833;30;20495;-81
2023/07/23 11:31:16;;;;;;;7.30;3.25;;;;;;;-144.51;100.00;69251.94;4773421;30;20052;-81
2023/07/23 11:34:12;;;;;;;22.13;9.88;;;;;;;-144.51;100.00;69251.94;4774956;30;20051;-81
2023/07/23 11:37:09;;;;;;;6.60;2.92;;;;;;;-144.51;100.00;69251.94;4772414;30;20051;-80
2023/07/23 11:40:04;;;;;;;8.73;4.20;;;;;;;-144.51;100.00;69251.94;4772156;30;20051;-81
2023/07/23 11:42:57;;;;;;;8.00;3.65;;;;;;;-144.51;100.00;69251.94;4763000;30;20043;-81
2023/07/23 11:45:51;;;;;;;7.70;3.53;;;;;;;-144.51;100.00;69251.94;4772032;30;20056;-81
2023/07/23 11:48:44;;;;;;;6.55;3.60;;;;;;;-144.51;100.00;69251.94;4788214;29;20067;-81
2023/07/23 11:51:39;;;;;;;6.25;3.30;;;;;;;-144.51;100.00;69251.94;4773993;30;20414;-81
2023/07/23 11:54:34;;;;;;;8.13;3.47;;;;;;;-144.51;100.00;69251.94;4771035;30;20047;-81
2023/07/23 11:57:28;;;;;;;18.23;7.50;;;;;;;-144.51;100.00;69251.94;4783284;29;20048;-81
2023/07/23 12:00:28;;;;;;;12.70;6.45;;;;;;;-144.51;100.00;69251.94;4772713;30;20052;-80
2023/07/23 12:03:23;;;;;;;20.33;9.75;;;;;;;-144.51;100.00;69251.94;4763050;30;20048;-81
2023/07/23 12:06:21;;;;;;;10.82;4.95;;;;;;;-144.51;100.00;69251.94;4786100;29;20048;-81
2023/07/23 12:09:13;;;;;;;13.68;6.13;;;;;;;-144.51;100.00;69251.94;4770925;30;20040;-81
2023/07/23 12:12:14;;;;;;;6.60;4.03;;;;;;;-144.51;100.00;69251.94;4762318;30;20044;-80
2023/07/23 12:15:09;;;;;;;7.18;3.42;;;;;;;-144.51;100.00;69251.94;4771390;30;20051;-80
2023/07/23 12:18:02;;;;;;;13.68;5.72;;;;;;;-144.51;100.00;69251.94;4765864;30;20044;-81
2023/07/23 12:20:58;;;;;;;16.02;7.28;;;;;;;-144.51;100.00;69251.94;4765990;30;20498;-80
2023/07/23 12:23:53;;;;;;;15.00;7.65;;;;;;;-144.51;100.00;69251.94;4766785;30;20043;-81
2023/07/23 12:26:51;;;;;;;12.20;5.75;;;;;;;-144.51;100.00;69251.94;4779060;30;20063;-80
2023/07/23 12:29:48;;;;;;;5.95;3.08;;;;;;;-144.51;100.00;69251.94;4775191;30;20505;-81
2023/07/23 12:32:43;;;;;;;7.38;3.42;;;;;;;-144.51;100.00;69251.94;4779158;30;20052;-81
2023/07/23 12:35:38;;;;;;;8.20;3.38;;;;;;;-144.51;100.00;69251.94;4789476;29;20433;-80
2023/07/23 12:38:30;;;;;;;17.15;7.28;;;;;;;-144.51;100.00;69251.94;4773865;30;20056;-81
2023/07/23 12:41:24;;;;;;;13.40;4.97;;;;;;;-144.51;100.00;69251.94;4777909;30;20047;-81
2023/07/23 12:44:19;;;;;;;5.55;3.45;;;;;;;-144.51;100.00;69251.94;4774633;30;20048;-81
2023/07/23 12:47:13;;;;;;;10.93;5.45;;;;;;;-144.51;100.00;69251.94;4765600;30;20044;-80
2023/07/23 12:50:05;;;;;;;20.40;8.52;;;;;;;-144.51;100.00;69251.94;4775383;30;20044;-80
2023/07/23 12:53:00;;;;;;;14.90;7.05;;;;;;;-144.51;100.00;69251.94;4760905;30;20051;-81
2023/07/23 12:55:55;;;;;;;15.27;7.40;;;;;;;-144.51;100.00;69251.94;4792662;29;20043;-81
2023/07/23 12:58:49;;;;;;;4.75;3.30;;;;;;;-144.51;100.00;69251.94;4773639;30;20043;-81
2023/07/23 13:01:41;;;;;;;8.68;4.22;;;;;;;-144.51;100.00;69251.94;4774206;30;20426;-81
2023/07/23 13:04:36;;;;;;;10.32;4.30;;;;;;;-144.51;100.00;69251.94;4780881;30;20035;-81
2023/07/23 13:07:30;;;;;;;11.13;6.43;;;;;;;-144.51;100.00;69251.94;4776835;30;20047;-81
2023/07/23 13:10:22;;;;;;;18.30;4.05;;;;;;;-144.51;100.00;69251.94;4789198;29;20040;-81
2023/07/23 13:13:17;;;;;;;10.55;5.00;;;;;;;-144.51;100.00;69251.94;4789904;29;20051;-81
2023/07/23 13:16:11;;;;;;;6.30;3.30;;;;;;;-144.51;100.00;69251.94;4781537;30;20059;-81
2023/07/23 13:19:06;;;;;;;10.05;4.53;;;;;;;-144.51;100.00;69251.94;4791223;29;20055;-81
2023/07/23 13:22:01;;;;;;;7.85;3.50;;;;;;;-144.51;100.00;69251.94;4789597;29;20043;-81
2023/07/23 13:24:55;;;;;;;5.40;3.45;;;;;;;-144.51;100.00;69251.94;4789545;30;20043;-81
2023/07/23 13:27:50;;;;;;;5.10;3.35;;;;;;;-144.51;100.00;69251.94;4790210;29;20493;-81
2023/07/23 13:30:44;;;;;;;12.90;4.45;;;;;;;-144.51;100.00;69251.94;4790929;30;20047;-81
2023/07/23 13:33:39;;;;;;;9.88;3.90;;;;;;;-144.51;100.00;69251.94;4791264;29;20043;-81
2023/07/23 13:36:31;;;;;;;14.05;6.55;;;;;;;-144.51;100.00;69251.94;4790089;29;20056;-81
2023/07/23 13:39:23;;;;;;;12.50;6.30;;;;;;;-144.51;100.00;69251.94;4791823;29;20044;-81
2023/07/23 13:42:18;;;;;;;6.90;3.28;;;;;;;-144.51;100.00;69251.94;4777212;30;20047;-81
2023/07/23 13:45:13;;;;;;;11.57;6.38;;;;;;;-144.51;100.00;69251.94;4802293;29;20051;-80
2023/07/23 13:48:08;;;;;;;7.03;3.72;;;;;;;-144.51;100.00;69251.94;4779086;30;20047;-81
2023/07/23 13:51:00;;;;;;;6.72;3.50;;;;;;;-144.51;100.00;69251.94;4789004;29;20043;-80
2023/07/23 13:53:54;;;;;;;10.75;4.97;;;;;;;-144.51;100.00;69251.94;4779594;30;20051;-81
2023/07/23 13:56:49;;;;;;;13.45;5.25;;;;;;;-144.51;100.00;69251.94;4789504;30;20513;-80
2023/07/23 13:59:44;;;;;;;9.50;3.80;;;;;;;-144.51;100.00;69251.94;4792565;29;20051;-81
2023/07/23 14:02:42;;;;;;;7.45;4.53;;;;;;;-144.51;100.00;69251.94;4791181;29;20414;-81
2023/07/23 14:05:36;;;;;;;9.52;4.25;;;;;;;-144.51;100.00;69251.94;4793546;29;20055;-81
2023/07/23 14:08:28;;;;;;;13.23;4.07;;;;;;;-144.51;100.00;69251.94;4791091;30;20051;-80
2023/07/23 14:11:23;;;;;;;7.80;3.97;;;;;;;-144.51;100.00;69251.94;4789323;29;20498;-81